createdAt,value
2019-04-14T00:01:41.249Z,90.60
2019-04-14T00:04:13.886Z,90.60
2019-04-14T00:06:44.140Z,90.50
2019-04-14T00:09:16.211Z,90.50
2019-04-14T00:11:46.342Z,90.50
2019-04-14T00:14:16.399Z,90.50
2019-04-14T00:16:46.754Z,90.50
2019-04-14T00:19:17.353Z,90.50
2019-04-14T00:21:47.523Z,90.60
2019-04-14T00:24:18.347Z,90.60
2019-04-14T00:26:48.781Z,90.50
2019-04-14T00:29:19.519Z,90.50
2019-04-14T00:31:51.062Z,90.50
2019-04-14T00:34:37.632Z,90.50
2019-04-14T00:37:12.105Z,90.50
2019-04-14T00:39:44.314Z,90.40
2019-04-14T00:42:21.346Z,90.50
2019-04-14T00:44:58.327Z,90.40
2019-04-14T00:47:29.472Z,90.40
2019-04-14T00:49:59.396Z,90.40
2019-04-14T00:52:29.848Z,90.30
2019-04-14T00:54:59.373Z,90.40
2019-04-14T00:57:29.054Z,90.30
2019-04-14T00:59:59.526Z,90.30
2019-04-14T01:02:29.698Z,90.30
2019-04-14T01:05:00.147Z,90.30
2019-04-14T01:07:29.014Z,90.30
2019-04-14T01:09:59.572Z,90.30
2019-04-14T01:12:29.980Z,90.30
2019-04-14T01:15:00.620Z,90.30
2019-04-14T01:17:31.421Z,90.30
2019-04-14T01:20:01.424Z,90.30
2019-04-14T01:22:31.461Z,90.30
2019-04-14T01:25:02.210Z,90.30
2019-04-14T01:27:34.120Z,90.30
2019-04-14T01:30:05.022Z,90.30
2019-04-14T01:32:35.108Z,90.30
2019-04-14T01:35:05.333Z,90.30
2019-04-14T01:37:35.995Z,90.30
2019-04-14T01:40:07.431Z,90.30
2019-04-14T01:42:37.733Z,90.30
2019-04-14T01:45:07.951Z,90.30
2019-04-14T01:47:39.871Z,90.30
2019-04-14T01:50:10.501Z,90.30
2019-04-14T01:52:41.019Z,90.30
2019-04-14T01:55:24.493Z,90.30
2019-04-14T01:57:56.772Z,90.30
2019-04-14T02:00:33.812Z,90.30
2019-04-14T02:03:04.168Z,90.30
2019-04-14T02:05:34.302Z,90.30
2019-04-14T02:08:04.449Z,90.30
2019-04-14T02:10:34.742Z,90.30
2019-04-14T02:13:04.989Z,90.30
2019-04-14T02:15:35.180Z,90.30
2019-04-14T02:18:05.607Z,90.30
2019-04-14T02:20:34.558Z,90.20
2019-04-14T02:23:04.072Z,90.30
2019-04-14T02:25:33.908Z,90.20
2019-04-14T02:28:04.687Z,90.20
2019-04-14T02:30:41.462Z,90.20
2019-04-14T02:33:48.559Z,90.20
2019-04-14T02:36:21.819Z,90.20
2019-04-14T02:38:45.414Z,90.30
2019-04-14T02:41:15.624Z,90.20
2019-04-14T02:43:41.394Z,90.20
2019-04-14T02:46:05.197Z,90.20
2019-04-14T02:48:46.271Z,90.20
2019-04-14T02:51:13.820Z,90.20
2019-04-14T02:53:42.636Z,90.10
2019-04-14T02:58:44.479Z,90.10
2019-04-14T03:01:23.376Z,90.10
2019-04-14T03:03:43.701Z,90.00
2019-04-14T03:06:12.590Z,90.00
2019-04-14T03:09:00.410Z,90.00
2019-04-14T03:11:17.408Z,90.00
2019-04-14T03:14:01.181Z,90.00
2019-04-14T03:16:27.337Z,90.00
2019-04-14T03:18:52.516Z,90.00
2019-04-14T03:24:17.022Z,89.90
2019-04-14T03:27:22.370Z,90.20
2019-04-14T03:30:08.165Z,89.80
2019-04-14T03:32:39.008Z,89.80
2019-04-14T03:35:16.492Z,89.70
2019-04-14T03:39:51.377Z,89.70
2019-04-14T03:42:28.876Z,89.90
2019-04-14T03:44:56.352Z,89.80
2019-04-14T03:47:25.617Z,89.70
2019-04-14T03:50:00.001Z,89.60
2019-04-14T03:52:51.653Z,89.60
2019-04-14T03:54:52.278Z,89.50
2019-04-14T03:57:08.234Z,89.50
2019-04-14T03:59:39.124Z,90.10
2019-04-14T04:02:09.610Z,89.50
2019-04-14T04:04:38.498Z,89.70
2019-04-14T04:07:08.237Z,89.30
2019-04-14T04:09:43.631Z,89.20
2019-04-14T04:12:13.907Z,89.10
2019-04-14T04:14:44.213Z,89.00
2019-04-14T04:17:15.450Z,89.10
2019-04-14T04:19:56.192Z,88.80
2019-04-14T04:22:28.142Z,88.80
2019-04-14T04:25:09.344Z,88.80
2019-04-14T04:27:41.701Z,88.90
2019-04-14T04:30:18.677Z,88.70
2019-04-14T04:32:53.510Z,88.70
2019-04-14T04:35:26.012Z,88.60
2019-04-14T04:38:03.045Z,88.50
2019-04-14T04:40:33.341Z,88.90
2019-04-14T04:43:03.818Z,88.40
2019-04-14T04:45:32.747Z,88.30
2019-04-14T04:48:15.203Z,88.20
2019-04-14T04:50:45.343Z,88.20
2019-04-14T04:53:15.791Z,88.20
2019-04-14T04:55:46.065Z,88.10
2019-04-14T04:58:17.332Z,88.10
2019-04-14T05:00:48.533Z,88.10
2019-04-14T05:03:19.588Z,87.90
2019-04-14T05:06:26.487Z,87.90
2019-04-14T05:09:07.793Z,87.70
2019-04-14T05:11:42.645Z,87.70
2019-04-14T05:14:13.785Z,87.40
2019-04-14T05:16:44.014Z,87.20
2019-04-14T05:19:21.849Z,87.10
2019-04-14T05:21:45.231Z,87.00
2019-04-14T05:24:15.646Z,86.90
2019-04-14T05:26:45.977Z,86.80
2019-04-14T05:29:16.673Z,86.80
2019-04-14T05:31:46.835Z,86.70
2019-04-14T05:34:17.281Z,87.00
2019-04-14T05:36:47.858Z,86.60
2019-04-14T05:39:17.761Z,86.70
2019-04-14T05:41:58.109Z,86.50
2019-04-14T05:44:18.642Z,86.70
2019-04-14T05:46:49.127Z,86.80
2019-04-14T05:49:29.564Z,86.60
2019-04-14T05:51:50.152Z,87.10
2019-04-14T05:54:20.620Z,86.50
2019-04-14T05:56:51.503Z,86.20
2019-04-14T05:59:21.981Z,86.00
2019-04-14T06:01:51.070Z,85.60
2019-04-14T06:04:20.610Z,85.40
2019-04-14T06:06:50.093Z,85.20
2019-04-14T06:09:19.598Z,84.90
2019-04-14T06:11:49.213Z,84.60
2019-04-14T06:14:18.663Z,84.70
2019-04-14T06:16:48.497Z,84.40
2019-04-14T06:19:17.800Z,84.30
2019-04-14T06:21:47.175Z,84.20
2019-04-14T06:24:17.494Z,84.20
2019-04-14T06:26:46.934Z,84.10
2019-04-14T06:29:35.732Z,83.70
2019-04-14T06:32:18.788Z,83.10
2019-04-14T06:35:06.137Z,82.60
2019-04-14T06:37:43.364Z,82.40
2019-04-14T06:40:12.879Z,82.30
2019-04-14T06:42:42.489Z,82.10
2019-04-14T06:45:11.942Z,82.00
2019-04-14T06:47:44.912Z,81.90
2019-04-14T06:50:13.617Z,81.70
2019-04-14T06:52:43.070Z,81.60
2019-04-14T06:55:12.528Z,81.50
2019-04-14T06:57:42.060Z,81.50
2019-04-14T07:00:12.135Z,81.50
2019-04-14T07:02:41.818Z,80.80
2019-04-14T07:05:11.658Z,80.30
2019-04-14T07:07:41.256Z,79.60
2019-04-14T07:10:10.714Z,79.90
2019-04-14T07:12:52.915Z,79.70
2019-04-14T07:15:22.575Z,79.10
2019-04-14T07:17:52.067Z,79.00
2019-04-14T07:20:22.508Z,79.00
2019-04-14T07:22:52.474Z,79.00
2019-04-14T07:25:22.583Z,78.90
2019-04-14T07:27:52.047Z,79.00
2019-04-14T07:30:23.093Z,79.20
2019-04-14T07:32:54.351Z,79.40
2019-04-14T07:35:38.282Z,79.10
2019-04-14T07:38:10.891Z,79.00
2019-04-14T07:41:03.851Z,79.10
2019-04-14T07:43:37.920Z,79.10
2019-04-14T07:46:25.438Z,78.90
2019-04-14T07:49:17.445Z,77.90
2019-04-14T07:51:51.790Z,77.50
2019-04-14T07:54:41.310Z,77.60
2019-04-14T07:57:14.913Z,77.60
2019-04-14T07:59:52.290Z,77.60
2019-04-14T08:02:23.499Z,77.40
2019-04-14T08:05:00.560Z,77.40
2019-04-14T08:07:42.713Z,77.20
2019-04-14T08:10:12.834Z,76.50
2019-04-14T08:12:42.435Z,76.00
2019-04-14T08:15:24.378Z,76.00
2019-04-14T08:17:53.943Z,76.10
2019-04-14T08:20:27.804Z,76.10
2019-04-14T08:22:57.921Z,76.20
2019-04-14T08:25:26.919Z,76.20
2019-04-14T08:27:56.375Z,75.10
2019-04-14T08:30:27.571Z,75.10
2019-04-14T08:32:57.122Z,74.60
2019-04-14T08:35:26.656Z,74.20
2019-04-14T08:37:56.259Z,74.50
2019-04-14T08:40:25.797Z,74.50
2019-04-14T08:43:00.116Z,74.10
2019-04-14T08:45:34.298Z,73.70
2019-04-14T08:48:17.526Z,72.90
2019-04-14T08:50:48.724Z,72.40
2019-04-14T08:53:19.790Z,72.40
2019-04-14T08:56:21.505Z,72.10
2019-04-14T08:59:10.770Z,71.90
2019-04-14T09:01:42.163Z,72.00
2019-04-14T09:04:13.395Z,72.00
2019-04-14T09:06:44.590Z,72.70
2019-04-14T09:09:18.650Z,70.80
2019-04-14T09:11:52.791Z,70.90
2019-04-14T09:14:22.320Z,71.30
2019-04-14T09:16:51.698Z,70.90
2019-04-14T09:19:21.612Z,70.70
2019-04-14T09:21:51.229Z,71.10
2019-04-14T09:24:21.327Z,70.40
2019-04-14T09:26:53.540Z,70.10
2019-04-14T09:29:24.665Z,69.80
2019-04-14T09:31:59.194Z,69.10
2019-04-14T09:34:33.777Z,69.90
2019-04-14T09:37:05.495Z,70.10
2019-04-14T09:39:38.003Z,70.50
2019-04-14T09:42:12.842Z,70.50
2019-04-14T09:44:50.497Z,70.30
2019-04-14T09:47:22.724Z,69.50
2019-04-14T09:49:56.368Z,69.60
2019-04-14T09:52:30.949Z,67.80
2019-04-14T09:55:04.847Z,67.20
2019-04-14T09:57:35.792Z,67.10
2019-04-14T10:00:08.283Z,66.90
2019-04-14T10:02:42.158Z,66.00
2019-04-14T10:05:13.125Z,66.00
2019-04-14T10:07:44.542Z,66.50
2019-04-14T10:10:15.265Z,66.20
2019-04-14T10:12:45.230Z,65.20
2019-04-14T10:15:14.933Z,64.20
2019-04-14T10:17:44.746Z,64.00
2019-04-14T10:20:14.587Z,63.80
2019-04-14T10:22:44.146Z,63.70
2019-04-14T10:25:14.006Z,63.60
2019-04-14T10:27:43.746Z,63.30
2019-04-14T10:30:13.296Z,62.90
2019-04-14T10:32:42.842Z,63.20
2019-04-14T10:35:12.242Z,62.50
2019-04-14T10:38:01.027Z,62.30
2019-04-14T10:40:30.593Z,61.50
2019-04-14T10:42:59.981Z,59.60
2019-04-14T10:45:29.455Z,59.90
2019-04-14T10:47:58.828Z,59.70
2019-04-14T10:50:31.197Z,59.10
2019-04-14T10:52:59.342Z,58.10
2019-04-14T10:55:28.786Z,58.40
2019-04-14T10:57:58.454Z,58.80
2019-04-14T11:00:27.916Z,58.70
2019-04-14T11:02:57.474Z,58.10
2019-04-14T11:05:28.565Z,58.50
2019-04-14T11:07:58.039Z,58.30
2019-04-14T11:10:27.430Z,57.80
2019-04-14T11:12:57.073Z,57.00
2019-04-14T11:15:26.709Z,56.40
2019-04-14T11:17:56.130Z,56.60
2019-04-14T11:20:25.503Z,56.50
2019-04-14T11:23:03.194Z,55.90
2019-04-14T11:25:25.931Z,54.80
2019-04-14T11:27:55.324Z,54.80
2019-04-14T11:30:25.179Z,55.50
2019-04-14T11:33:08.481Z,56.30
2019-04-14T11:35:56.193Z,56.10
2019-04-14T11:38:27.443Z,55.80
2019-04-14T11:41:04.505Z,56.20
2019-04-14T11:43:34.107Z,56.40
2019-04-14T11:46:04.242Z,55.90
2019-04-14T11:48:33.705Z,55.60
2019-04-14T11:51:03.435Z,55.50
2019-04-14T11:53:36.418Z,54.10
2019-04-14T11:56:06.457Z,52.80
2019-04-14T11:58:40.549Z,52.60
2019-04-14T12:01:30.024Z,52.40
2019-04-14T12:04:01.285Z,51.10
2019-04-14T12:06:50.044Z,51.00
2019-04-14T12:09:24.065Z,51.30
2019-04-14T12:11:55.147Z,51.40
2019-04-14T12:14:28.334Z,51.70
2019-04-14T12:16:58.828Z,51.40
2019-04-14T12:19:32.655Z,51.20
2019-04-14T12:22:08.025Z,50.90
2019-04-14T12:24:31.781Z,51.00
2019-04-14T12:27:01.791Z,51.00
2019-04-14T12:29:32.563Z,51.20
2019-04-14T12:32:02.223Z,51.60
2019-04-14T12:34:31.600Z,51.80
2019-04-14T12:37:02.106Z,52.90
2019-04-14T12:39:31.501Z,53.10
2019-04-14T12:42:11.700Z,52.70
2019-04-14T12:44:51.768Z,52.40
2019-04-14T12:47:25.993Z,51.10
2019-04-14T12:50:03.341Z,49.60
2019-04-14T12:52:32.915Z,49.00
2019-04-14T12:55:02.572Z,49.10
2019-04-14T12:57:37.060Z,48.40
2019-04-14T13:00:08.279Z,46.90
2019-04-14T13:02:40.260Z,46.70
2019-04-14T13:05:10.219Z,44.90
2019-04-14T13:07:39.734Z,41.80
2019-04-14T13:10:09.125Z,40.30
2019-04-14T13:12:38.551Z,39.90
2019-04-14T13:15:13.351Z,40.90
2019-04-14T13:17:42.916Z,40.80
2019-04-14T13:20:13.057Z,41.30
2019-04-14T13:22:42.508Z,39.90
2019-04-14T13:25:16.718Z,39.50
2019-04-14T13:27:46.489Z,39.00
2019-04-14T13:30:17.661Z,38.40
2019-04-14T13:32:47.075Z,37.70
2019-04-14T13:35:17.092Z,37.40
2019-04-14T13:37:49.876Z,37.50
2019-04-14T13:40:19.716Z,37.70
2019-04-14T13:42:49.379Z,37.20
2019-04-14T13:45:18.972Z,36.00
2019-04-14T13:47:48.513Z,35.80
2019-04-14T13:50:18.004Z,35.80
2019-04-14T13:52:48.661Z,34.90
2019-04-14T13:55:18.225Z,34.70
2019-04-14T13:57:49.996Z,35.10
2019-04-14T14:00:19.655Z,35.40
2019-04-14T14:02:49.329Z,35.10
2019-04-14T14:05:18.971Z,35.30
2019-04-14T14:07:48.419Z,35.30
2019-04-14T14:10:18.166Z,35.00
2019-04-14T14:12:55.383Z,34.40
2019-04-14T14:15:28.242Z,34.50
2019-04-14T14:18:06.268Z,34.30
2019-04-14T14:20:53.770Z,34.70
2019-04-14T14:23:27.949Z,35.40
2019-04-14T14:26:01.993Z,34.60
2019-04-14T14:28:31.888Z,34.20
2019-04-14T14:31:01.567Z,34.10
2019-04-14T14:33:31.094Z,34.30
2019-04-14T14:36:00.474Z,33.70
2019-04-14T14:38:29.863Z,34.00
2019-04-14T14:41:02.236Z,33.70
2019-04-14T14:43:31.902Z,34.10
2019-04-14T14:46:19.439Z,34.20
2019-04-14T14:48:53.826Z,33.80
2019-04-14T14:51:24.945Z,33.90
2019-04-14T14:53:54.470Z,34.20
2019-04-14T14:56:23.950Z,34.70
2019-04-14T14:58:53.496Z,34.60
2019-04-14T15:01:22.942Z,34.70
2019-04-14T15:03:52.343Z,34.30
2019-04-14T15:06:21.777Z,34.30
2019-04-14T15:08:51.192Z,34.80
2019-04-14T15:11:20.585Z,35.90
2019-04-14T15:13:50.268Z,35.90
2019-04-14T15:16:19.721Z,35.80
2019-04-14T15:18:49.177Z,35.90
2019-04-14T15:21:18.698Z,36.40
2019-04-14T15:23:48.104Z,36.40
2019-04-14T15:26:18.723Z,36.70
2019-04-14T15:28:48.306Z,37.30
2019-04-14T15:31:17.734Z,37.80
2019-04-14T15:33:47.164Z,38.00
2019-04-14T15:36:16.990Z,38.00
2019-04-14T15:38:46.469Z,37.90
2019-04-14T15:41:18.580Z,37.60
2019-04-14T15:43:49.620Z,38.10
2019-04-14T15:46:18.989Z,38.00
2019-04-14T15:48:48.452Z,38.50
2019-04-14T15:51:19.135Z,38.10
2019-04-14T15:53:48.686Z,38.00
2019-04-14T15:56:36.128Z,37.80
2019-04-14T15:59:10.154Z,37.10
2019-04-14T16:01:47.076Z,37.50
2019-04-14T16:04:35.092Z,37.80
2019-04-14T16:07:22.720Z,38.20
2019-04-14T16:10:10.179Z,38.60
2019-04-14T16:12:52.837Z,38.90
2019-04-14T16:15:33.318Z,39.50
2019-04-14T16:18:04.228Z,39.40
2019-04-14T16:20:58.248Z,39.60
2019-04-14T16:23:49.920Z,39.90
2019-04-14T16:29:39.311Z,40.20
2019-04-14T16:32:10.404Z,40.50
2019-04-14T16:34:47.399Z,40.60
2019-04-14T16:37:17.189Z,40.40
2019-04-14T16:39:46.757Z,40.30
2019-04-14T16:42:16.151Z,40.60
2019-04-14T16:44:45.608Z,40.60
2019-04-14T16:47:15.060Z,40.70
2019-04-14T16:49:44.501Z,40.70
2019-04-14T16:52:15.602Z,40.80
2019-04-14T16:54:49.976Z,41.00
2019-04-14T16:57:39.067Z,41.00
2019-04-14T17:00:10.388Z,40.90
2019-04-14T17:02:41.191Z,40.70
2019-04-14T17:05:12.984Z,40.80
2019-04-14T17:07:42.553Z,40.90
2019-04-14T17:10:11.922Z,41.60
2019-04-14T17:12:41.398Z,41.30
2019-04-14T17:15:12.502Z,41.20
2019-04-14T17:17:43.530Z,41.30
2019-04-14T17:20:17.565Z,41.40
2019-04-14T17:22:48.704Z,41.70
2019-04-14T17:25:28.835Z,41.80
2019-04-14T17:28:05.968Z,41.80
2019-04-14T17:30:40.084Z,41.90
2019-04-14T17:33:18.078Z,42.10
2019-04-14T17:36:01.493Z,42.70
2019-04-14T17:38:36.607Z,42.00
2019-04-14T17:41:14.403Z,41.90
2019-04-14T17:43:51.589Z,42.20
2019-04-14T17:46:39.337Z,42.10
2019-04-14T17:49:19.493Z,42.10
2019-04-14T17:51:50.699Z,42.20
2019-04-14T17:54:29.281Z,42.20
2019-04-14T17:57:00.559Z,42.20
2019-04-14T17:59:37.942Z,42.30
2019-04-14T18:02:10.570Z,42.30
2019-04-14T18:04:44.435Z,42.30
2019-04-14T18:07:15.478Z,42.50
2019-04-14T18:09:52.856Z,42.40
2019-04-14T18:12:23.884Z,42.90
2019-04-14T18:15:11.864Z,42.50
2019-04-14T18:17:51.653Z,42.50
2019-04-14T18:20:22.751Z,42.40
2019-04-14T18:22:52.308Z,42.50
2019-04-14T18:25:21.782Z,42.60
2019-04-14T18:27:52.914Z,42.60
2019-04-14T18:30:27.994Z,42.50
2019-04-14T18:33:01.150Z,42.50
2019-04-14T18:35:33.035Z,42.40
2019-04-14T18:38:06.980Z,42.50
2019-04-14T18:40:50.093Z,42.70
2019-04-14T18:43:27.421Z,43.10
2019-04-14T18:45:58.423Z,43.30
2019-04-14T18:48:41.831Z,43.60
2019-04-14T18:51:15.714Z,43.70
2019-04-14T18:53:56.105Z,43.60
2019-04-14T18:56:27.138Z,43.50
2019-04-14T18:59:16.474Z,43.60
2019-04-14T19:01:47.502Z,43.60
2019-04-14T19:04:16.887Z,43.50
2019-04-14T19:06:46.260Z,43.70
2019-04-14T19:09:15.619Z,43.80
2019-04-14T19:11:56.073Z,43.80
2019-04-14T19:14:27.442Z,43.70
2019-04-14T19:17:02.827Z,43.60
2019-04-14T19:19:34.032Z,43.30
2019-04-14T19:22:03.467Z,43.40
2019-04-14T19:24:32.843Z,43.40
2019-04-14T19:27:02.273Z,43.50
2019-04-14T19:29:31.656Z,43.50
2019-04-14T19:32:01.040Z,43.40
2019-04-14T19:34:30.611Z,43.40
2019-04-14T19:37:00.414Z,43.50
2019-04-14T19:39:29.834Z,43.40
2019-04-14T19:41:59.436Z,43.40
2019-04-14T19:44:28.819Z,43.30
2019-04-14T19:46:58.444Z,43.30
2019-04-14T19:49:27.876Z,43.30
2019-04-14T19:51:57.623Z,43.40
2019-04-14T19:54:27.108Z,43.40
2019-04-14T19:56:56.495Z,43.50
2019-04-14T19:59:25.846Z,43.60
2019-04-14T20:01:55.290Z,43.50
2019-04-14T20:04:24.838Z,43.60
2019-04-14T20:06:54.383Z,43.80
2019-04-14T20:09:23.768Z,43.80
2019-04-14T20:11:53.298Z,43.90
2019-04-14T20:14:23.141Z,43.80
2019-04-14T20:16:54.754Z,43.80
2019-04-14T20:19:31.888Z,43.80
2019-04-14T20:22:02.985Z,43.80
2019-04-14T20:24:34.092Z,43.90
2019-04-14T20:27:20.235Z,44.10
2019-04-14T20:29:51.262Z,44.10
2019-04-14T20:32:27.988Z,44.10
2019-04-14T20:34:57.364Z,44.00
2019-04-14T20:37:26.757Z,43.90
2019-04-14T20:39:56.110Z,44.00
2019-04-14T20:42:25.541Z,44.10
2019-04-14T20:44:55.194Z,44.20
2019-04-14T20:47:24.574Z,44.40
2019-04-14T20:49:54.553Z,44.40
2019-04-14T20:52:23.926Z,44.50
2019-04-14T20:54:53.872Z,44.60
2019-04-14T20:57:23.645Z,44.70
2019-04-14T20:59:53.357Z,44.60
2019-04-14T21:02:30.896Z,44.80
2019-04-14T21:05:02.349Z,44.90
2019-04-14T21:07:49.796Z,44.90
2019-04-14T21:10:30.420Z,44.90
2019-04-14T21:13:03.841Z,44.80
2019-04-14T21:15:44.143Z,45.00
2019-04-14T21:18:18.202Z,45.00
2019-04-14T21:20:55.328Z,45.00
2019-04-14T21:23:26.369Z,44.90
2019-04-14T21:26:01.218Z,44.90
2019-04-14T21:28:44.377Z,44.90
2019-04-14T21:31:16.474Z,44.80
2019-04-14T21:33:50.435Z,44.80
2019-04-14T21:36:30.240Z,45.10
2019-04-14T21:39:13.356Z,45.60
2019-04-14T21:41:44.552Z,44.90
2019-04-14T21:44:13.912Z,44.80
2019-04-14T21:46:44.435Z,44.80
2019-04-14T21:49:13.843Z,44.80
2019-04-14T21:52:00.090Z,44.90
2019-04-14T21:54:29.576Z,45.00
2019-04-14T21:57:17.322Z,45.00
2019-04-14T22:00:05.254Z,45.00
2019-04-14T22:02:54.492Z,45.20
2019-04-14T22:05:35.856Z,45.40
2019-04-14T22:08:09.994Z,45.50
2019-04-14T22:10:41.825Z,45.50
2019-04-14T22:13:13.297Z,45.60
2019-04-14T22:15:43.113Z,45.70
2019-04-14T22:18:12.465Z,45.70
2019-04-14T22:20:42.839Z,45.70
2019-04-14T22:23:12.712Z,45.60
2019-04-14T22:25:42.462Z,45.70
2019-04-14T22:28:15.516Z,45.70
2019-04-14T22:30:45.177Z,45.70
2019-04-14T22:33:15.280Z,45.70
2019-04-14T22:35:45.095Z,46.40
2019-04-14T22:38:15.406Z,45.80
2019-04-14T22:40:45.630Z,45.90
2019-04-14T22:43:15.328Z,45.80
2019-04-14T22:45:45.036Z,45.90
2019-04-14T22:48:14.810Z,45.70
2019-04-14T22:50:45.160Z,45.70
2019-04-14T22:53:16.681Z,45.80
2019-04-14T22:55:46.401Z,45.90
2019-04-14T22:58:16.201Z,46.10
2019-04-14T23:00:51.505Z,46.10
2019-04-14T23:03:30.240Z,46.70
2019-04-14T23:06:04.296Z,46.20
2019-04-14T23:08:36.205Z,46.10
2019-04-14T23:11:11.951Z,46.10
2019-04-14T23:13:43.126Z,46.30
2019-04-14T23:16:14.592Z,46.30
2019-04-14T23:18:55.011Z,46.30
2019-04-14T23:21:36.591Z,46.60
2019-04-14T23:24:14.035Z,46.70
2019-04-14T23:26:52.487Z,46.80
2019-04-14T23:29:14.714Z,46.90
2019-04-14T23:31:44.516Z,47.00
2019-04-14T23:34:14.114Z,47.00
2019-04-14T23:36:43.609Z,47.20
2019-04-14T23:39:13.256Z,47.30
2019-04-14T23:41:42.899Z,47.20
2019-04-14T23:44:12.727Z,47.20
2019-04-14T23:46:44.313Z,47.40
2019-04-14T23:49:13.830Z,47.40
2019-04-14T23:51:44.312Z,47.40
2019-04-14T23:54:13.257Z,47.30
2019-04-14T23:56:42.601Z,47.10
2019-04-14T23:59:11.997Z,47.20
